Time;durP1;ratioP1;P1;durP2;ratioP2;P2;SDS_P1;SDS_P2;PMS_P1;PMS_P2;Temp;Humidity;BMP_temperature;BMP_pressure;BME280_temperature;BME280_humidity;BME280_pressure;Samples;Min_cycle;Max_cycle;Signal;HPM_P1;HPM_P2
2022/09/08 00:01:49;;;;;;;8.05;2.97;;;;;;;;;;5084840;28;20203;-71
2022/09/08 00:04:15;;;;;;;5.90;2.65;;;;;;;;;;5084247;28;20196;-71
2022/09/08 00:06:41;;;;;;;3.20;2.92;;;;;;;;;;5084276;28;20221;-70
2022/09/08 00:09:09;;;;;;;3.88;2.72;;;;;;;;;;5084217;28;20387;-71
2022/09/08 00:11:39;;;;;;;4.40;2.92;;;;;;;;;;5084129;28;20204;-71
2022/09/08 00:14:07;;;;;;;4.63;2.88;;;;;;;;;;5083890;28;20200;-71
2022/09/08 00:16:34;;;;;;;4.60;3.22;;;;;;;;;;5084442;28;20204;-71
2022/09/08 00:19:00;;;;;;;3.97;3.38;;;;;;;;;;5084370;28;20244;-68
2022/09/08 00:21:28;;;;;;;3.97;3.45;;;;;;;;;;5084261;28;20391;-71
2022/09/08 00:23:54;;;;;;;4.43;3.28;;;;;;;;;;5083873;28;20234;-69
2022/09/08 00:26:22;;;;;;;6.43;3.58;;;;;;;;;;5083811;28;20512;-71
2022/09/08 00:28:49;;;;;;;4.53;3.35;;;;;;;;;;5084022;28;20515;-71
2022/09/08 00:31:16;;;;;;;5.72;3.63;;;;;;;;;;5084152;28;20197;-71
2022/09/08 00:33:42;;;;;;;3.50;3.10;;;;;;;;;;5083694;28;20196;-71
2022/09/08 00:36:14;;;;;;;3.05;2.78;;;;;;;;;;5083839;28;20421;-71
2022/09/08 00:38:41;;;;;;;3.55;3.17;;;;;;;;;;5083627;28;20239;-71
2022/09/08 00:41:11;;;;;;;5.50;2.95;;;;;;;;;;5083641;28;20223;-71
2022/09/08 00:43:40;;;;;;;6.95;3.22;;;;;;;;;;5083191;28;20196;-71
2022/09/08 00:46:14;;;;;;;4.93;2.92;;;;;;;;;;5083887;28;20399;-71
2022/09/08 00:48:42;;;;;;;6.75;3.30;;;;;;;;;;5082992;28;20192;-71
2022/09/08 00:51:08;;;;;;;6.53;3.30;;;;;;;;;;5083435;28;20200;-71
2022/09/08 00:53:37;;;;;;;3.47;3.13;;;;;;;;;;5083089;28;20196;-71
2022/09/08 00:56:05;;;;;;;3.67;3.35;;;;;;;;;;5083435;28;20268;-70
2022/09/08 00:58:31;;;;;;;8.52;3.85;;;;;;;;;;5083098;28;20216;-71
2022/09/08 01:01:00;;;;;;;4.93;3.33;;;;;;;;;;5083156;28;20200;-71
2022/09/08 01:03:41;;;;;;;6.72;3.80;;;;;;;;;;5082934;28;20495;-71
2022/09/08 01:06:14;;;;;;;5.75;3.88;;;;;;;;;;5082910;28;20256;-71
2022/09/08 01:14:45;;;;;;;7.00;3.50;;;;;;;;;;5082715;28;20245;-71
2022/09/08 01:17:15;;;;;;;4.60;4.07;;;;;;;;;;5083054;28;20245;-71
2022/09/08 01:19:45;;;;;;;6.35;4.00;;;;;;;;;;5083318;28;20199;-71
2022/09/08 01:22:18;;;;;;;6.60;4.00;;;;;;;;;;5082643;28;20267;-71
2022/09/08 01:24:47;;;;;;;4.53;4.00;;;;;;;;;;5082832;28;20250;-71
2022/09/08 01:27:21;;;;;;;5.43;3.78;;;;;;;;;;5082720;28;20520;-71
2022/09/08 01:29:48;;;;;;;5.28;4.00;;;;;;;;;;5082956;28;20200;-71
2022/09/08 01:32:14;;;;;;;5.43;3.38;;;;;;;;;;5082718;28;20422;-71
2022/09/08 01:34:41;;;;;;;3.70;3.40;;;;;;;;;;5082785;28;20527;-71
2022/09/08 01:37:07;;;;;;;6.97;3.47;;;;;;;;;;5082573;28;20480;-71
2022/09/08 01:39:33;;;;;;;3.83;3.53;;;;;;;;;;5082643;28;20408;-71
2022/09/08 01:42:00;;;;;;;5.40;3.80;;;;;;;;;;5082720;28;20202;-71
2022/09/08 01:44:28;;;;;;;3.70;3.38;;;;;;;;;;5082209;28;20216;-71
2022/09/08 01:46:54;;;;;;;8.02;3.78;;;;;;;;;;5082567;28;20200;-71
2022/09/08 01:49:20;;;;;;;5.78;3.92;;;;;;;;;;5082520;28;20200;-71
2022/09/08 01:51:47;;;;;;;5.63;4.07;;;;;;;;;;5082392;28;20196;-71
2022/09/08 01:54:13;;;;;;;7.95;3.70;;;;;;;;;;5082473;28;20196;-70
2022/09/08 01:56:39;;;;;;;4.10;3.72;;;;;;;;;;5082535;28;20504;-70
2022/09/08 01:59:06;;;;;;;5.60;3.53;;;;;;;;;;5082036;28;20212;-71
2022/09/08 02:01:33;;;;;;;4.05;3.38;;;;;;;;;;5081546;28;20219;-70
2022/09/08 02:03:59;;;;;;;4.57;3.90;;;;;;;;;;5081984;28;20196;-70
2022/09/08 02:06:27;;;;;;;3.45;3.15;;;;;;;;;;5082192;28;20216;-70
2022/09/08 02:08:53;;;;;;;6.50;3.38;;;;;;;;;;5082347;28;20441;-71
2022/09/08 02:11:20;;;;;;;3.97;3.65;;;;;;;;;;5082564;28;20488;-71
2022/09/08 02:13:46;;;;;;;6.78;3.47;;;;;;;;;;5082270;28;20196;-70
2022/09/08 02:16:13;;;;;;;4.65;3.00;;;;;;;;;;5082224;28;20250;-70
2022/09/08 02:18:40;;;;;;;8.50;3.72;;;;;;;;;;5082127;28;20212;-71
2022/09/08 02:21:08;;;;;;;5.30;3.53;;;;;;;;;;5082184;28;20255;-71
2022/09/08 02:23:35;;;;;;;5.65;3.83;;;;;;;;;;5082070;28;20208;-70
2022/09/08 02:26:01;;;;;;;5.22;3.70;;;;;;;;;;5082083;28;20207;-70
2022/09/08 02:28:28;;;;;;;4.78;2.85;;;;;;;;;;5082231;28;20239;-70
2022/09/08 02:30:57;;;;;;;2.28;2.17;;;;;;;;;;5082126;28;20204;-70
2022/09/08 02:33:23;;;;;;;4.40;2.40;;;;;;;;;;5081632;28;20196;-70
2022/09/08 02:35:51;;;;;;;2.72;1.80;;;;;;;;;;5081951;28;20208;-70
2022/09/08 02:38:17;;;;;;;3.70;1.90;;;;;;;;;;5082080;28;20228;-71
2022/09/08 02:40:43;;;;;;;2.75;2.13;;;;;;;;;;5081927;28;20196;-70
2022/09/08 02:43:09;;;;;;;3.45;1.60;;;;;;;;;;5081735;28;20196;-71
2022/09/08 02:45:38;;;;;;;3.97;1.85;;;;;;;;;;5081913;28;20203;-71
2022/09/08 02:48:04;;;;;;;2.05;1.70;;;;;;;;;;5082006;28;20542;-71
2022/09/08 02:50:31;;;;;;;4.85;1.67;;;;;;;;;;5081848;28;20242;-71
2022/09/08 02:52:58;;;;;;;1.60;1.50;;;;;;;;;;5081737;28;20500;-70
2022/09/08 02:55:24;;;;;;;1.73;1.58;;;;;;;;;;5081825;28;20197;-70
2022/09/08 02:57:51;;;;;;;1.50;1.40;;;;;;;;;;5081792;28;20196;-70
2022/09/08 03:00:17;;;;;;;1.95;1.65;;;;;;;;;;5082180;28;20211;-71
2022/09/08 03:02:44;;;;;;;3.65;1.70;;;;;;;;;;5081912;28;20483;-71
2022/09/08 03:05:10;;;;;;;3.08;1.40;;;;;;;;;;5081688;28;20217;-70
2022/09/08 03:07:37;;;;;;;1.90;1.80;;;;;;;;;;5081643;28;20220;-70
2022/09/08 03:10:05;;;;;;;1.23;1.17;;;;;;;;;;5081727;28;20408;-70
2022/09/08 03:12:32;;;;;;;1.77;1.27;;;;;;;;;;5083895;28;20219;-71
2022/09/08 03:14:58;;;;;;;2.35;1.10;;;;;;;;;;5085309;28;20196;-70
2022/09/08 03:17:24;;;;;;;2.75;0.95;;;;;;;;;;5085198;28;20208;-71
2022/09/08 03:19:51;;;;;;;1.48;0.75;;;;;;;;;;5085384;28;20220;-71
2022/09/08 03:22:17;;;;;;;2.83;1.00;;;;;;;;;;5085180;28;20204;-70
2022/09/08 03:24:43;;;;;;;1.10;1.00;;;;;;;;;;5085518;28;20197;-70
2022/09/08 03:27:11;;;;;;;9.27;5.22;;;;;;;;;;5084855;28;20204;-70
2022/09/08 03:29:37;;;;;;;3.45;3.15;;;;;;;;;;5084970;28;20392;-71
2022/09/08 03:32:04;;;;;;;1.30;1.30;;;;;;;;;;5085103;28;20266;-71
2022/09/08 03:34:30;;;;;;;1.55;1.48;;;;;;;;;;5084834;28;20196;-71
2022/09/08 03:36:56;;;;;;;2.33;2.10;;;;;;;;;;5084791;28;20200;-70
2022/09/08 03:39:22;;;;;;;6.32;1.83;;;;;;;;;;5084810;28;20539;-71
2022/09/08 03:41:49;;;;;;;2.05;1.15;;;;;;;;;;5084827;28;20557;-70
2022/09/08 03:44:16;;;;;;;1.50;1.40;;;;;;;;;;5084422;28;20422;-71
2022/09/08 03:46:42;;;;;;;1.38;1.23;;;;;;;;;;5084981;28;20200;-71
2022/09/08 03:49:09;;;;;;;3.45;1.08;;;;;;;;;;5084755;28;20215;-70
2022/09/08 03:51:35;;;;;;;2.13;1.40;;;;;;;;;;5084728;28;20426;-70
2022/09/08 03:56:42;;;;;;;1.35;1.30;;;;;;;;;;5084349;28;20397;-70
2022/09/08 03:59:08;;;;;;;2.10;1.25;;;;;;;;;;5084633;28;20450;-71
2022/09/08 04:01:36;;;;;;;2.85;0.90;;;;;;;;;;5084630;28;20196;-70
2022/09/08 04:04:02;;;;;;;0.90;0.90;;;;;;;;;;5084220;28;20395;-70
2022/09/08 04:06:30;;;;;;;0.85;0.80;;;;;;;;;;5084627;28;20270;-71
2022/09/08 04:08:56;;;;;;;6.47;5.80;;;;;;;;;;5084134;28;20197;-70
2022/09/08 04:11:23;;;;;;;3.35;1.48;;;;;;;;;;5084086;28;20196;-70
2022/09/08 04:13:50;;;;;;;2.58;1.10;;;;;;;;;;5083939;28;20201;-71
2022/09/08 04:16:16;;;;;;;1.85;1.75;;;;;;;;;;5083988;28;20196;-71
2022/09/08 04:18:44;;;;;;;1.70;1.08;;;;;;;;;;5084164;28;20243;-70
2022/09/08 04:21:11;;;;;;;3.10;2.00;;;;;;;;;;5084120;28;20397;-70
2022/09/08 04:23:37;;;;;;;4.20;1.73;;;;;;;;;;5082634;28;20196;-71
2022/09/08 04:26:05;;;;;;;3.75;0.90;;;;;;;;;;5083798;28;20208;-70
2022/09/08 04:28:31;;;;;;;0.88;0.88;;;;;;;;;;5083870;28;20200;-69
2022/09/08 04:30:58;;;;;;;1.00;0.75;;;;;;;;;;5084002;28;20361;-69
2022/09/08 04:33:24;;;;;;;1.05;0.70;;;;;;;;;;5083641;28;20426;-69
2022/09/08 04:35:52;;;;;;;2.05;0.80;;;;;;;;;;5083784;28;20197;-69
2022/09/08 04:38:19;;;;;;;2.60;0.80;;;;;;;;;;5083614;28;20238;-69
2022/09/08 04:40:45;;;;;;;2.75;1.00;;;;;;;;;;5083571;28;20219;-69
2022/09/08 04:43:12;;;;;;;3.00;1.02;;;;;;;;;;5083269;28;20234;-69
2022/09/08 04:45:38;;;;;;;0.90;0.90;;;;;;;;;;5083611;28;20203;-69
2022/09/08 04:48:04;;;;;;;1.23;1.10;;;;;;;;;;5083403;28;20233;-69
2022/09/08 04:50:30;;;;;;;4.78;1.10;;;;;;;;;;5083401;28;20196;-69
2022/09/08 04:52:58;;;;;;;1.17;0.70;;;;;;;;;;5083107;28;20234;-69
2022/09/08 04:55:24;;;;;;;1.75;0.70;;;;;;;;;;5083334;28;20196;-70
2022/09/08 04:57:50;;;;;;;1.50;0.80;;;;;;;;;;5083205;28;20196;-69
2022/09/08 05:00:18;;;;;;;2.38;0.80;;;;;;;;;;5083185;28;20258;-69
2022/09/08 05:02:46;;;;;;;2.10;0.60;;;;;;;;;;5082961;28;20223;-69
2022/09/08 05:05:12;;;;;;;1.25;0.60;;;;;;;;;;5083038;28;20474;-69
2022/09/08 05:07:38;;;;;;;0.77;0.70;;;;;;;;;;5083085;28;20407;-69
2022/09/08 05:10:07;;;;;;;3.13;2.30;;;;;;;;;;5083659;28;20569;-69
2022/09/08 05:12:33;;;;;;;1.05;0.90;;;;;;;;;;5082940;28;20203;-69
2022/09/08 05:15:00;;;;;;;1.63;0.90;;;;;;;;;;5082895;28;20257;-69
2022/09/08 05:17:26;;;;;;;1.35;0.52;;;;;;;;;;5082784;28;20290;-69
2022/09/08 05:19:52;;;;;;;2.38;0.65;;;;;;;;;;5082695;28;20216;-69
2022/09/08 05:22:18;;;;;;;0.90;0.90;;;;;;;;;;5082251;28;20424;-69
2022/09/08 05:24:45;;;;;;;1.42;0.95;;;;;;;;;;5082541;28;20238;-69
2022/09/08 05:27:12;;;;;;;2.33;0.95;;;;;;;;;;5082345;28;20254;-69
2022/09/08 05:29:38;;;;;;;1.15;0.73;;;;;;;;;;5082511;28;20200;-69
2022/09/08 05:32:05;;;;;;;1.80;1.25;;;;;;;;;;5082536;28;20196;-69
2022/09/08 05:34:31;;;;;;;1.17;1.13;;;;;;;;;;5082522;28;20246;-69
2022/09/08 05:36:57;;;;;;;1.90;0.80;;;;;;;;;;5082224;28;20208;-69
2022/09/08 05:39:24;;;;;;;1.05;0.43;;;;;;;;;;5082528;28;20590;-69
2022/09/08 05:41:50;;;;;;;1.45;0.80;;;;;;;;;;5082309;28;20204;-69
2022/09/08 05:44:17;;;;;;;0.90;0.60;;;;;;;;;;5082174;28;20504;-69
2022/09/08 05:46:44;;;;;;;2.95;0.80;;;;;;;;;;5082308;28;20395;-70
2022/09/08 05:49:10;;;;;;;4.43;0.82;;;;;;;;;;5081979;28;20192;-66
2022/09/08 05:51:36;;;;;;;0.95;0.93;;;;;;;;;;5063852;28;20216;-64
2022/09/08 05:54:02;;;;;;;0.65;0.65;;;;;;;;;;5067901;28;20235;-64
2022/09/08 05:56:29;;;;;;;1.23;1.13;;;;;;;;;;5076347;28;20215;-65
2022/09/08 05:58:57;;;;;;;4.70;1.27;;;;;;;;;;5075120;28;20543;-64
2022/09/08 06:01:25;;;;;;;2.22;0.63;;;;;;;;;;5076681;28;20208;-63
2022/09/08 06:03:52;;;;;;;3.03;1.00;;;;;;;;;;5076694;28;20212;-65
2022/09/08 06:06:18;;;;;;;2.47;1.10;;;;;;;;;;5075292;28;20236;-65
2022/09/08 06:08:45;;;;;;;1.35;1.00;;;;;;;;;;5073657;28;20833;-65
2022/09/08 06:11:11;;;;;;;0.50;0.50;;;;;;;;;;5074254;28;20551;-64
2022/09/08 06:13:39;;;;;;;0.95;0.70;;;;;;;;;;5073071;28;20281;-64
2022/09/08 06:16:06;;;;;;;0.80;0.80;;;;;;;;;;5073765;28;20446;-64
2022/09/08 06:18:34;;;;;;;2.45;0.68;;;;;;;;;;5074532;28;20446;-65
2022/09/08 06:21:03;;;;;;;1.15;0.63;;;;;;;;;;5070365;28;20228;-64
2022/09/08 06:23:30;;;;;;;0.70;0.70;;;;;;;;;;5070984;28;20448;-64
2022/09/08 06:25:56;;;;;;;2.88;0.70;;;;;;;;;;5074117;28;20397;-64
2022/09/08 06:28:27;;;;;;;0.93;0.60;;;;;;;;;;5074172;28;20223;-64
2022/09/08 06:30:55;;;;;;;2.47;0.60;;;;;;;;;;5073413;28;20231;-64
2022/09/08 06:33:23;;;;;;;0.57;0.57;;;;;;;;;;5074046;28;20216;-64
2022/09/08 06:35:54;;;;;;;2.67;0.63;;;;;;;;;;5074008;28;20392;-64
2022/09/08 06:38:25;;;;;;;0.93;0.77;;;;;;;;;;5074442;28;20213;-63
2022/09/08 06:41:03;;;;;;;0.70;0.70;;;;;;;;;;5073640;28;20254;-64
2022/09/08 06:43:33;;;;;;;0.95;0.60;;;;;;;;;;5073779;28;20212;-64
2022/09/08 06:46:06;;;;;;;0.55;0.55;;;;;;;;;;5070500;28;20200;-64
2022/09/08 06:48:33;;;;;;;0.60;0.60;;;;;;;;;;5077479;28;20212;-63
2022/09/08 06:51:08;;;;;;;1.45;0.70;;;;;;;;;;5077660;28;20212;-63
2022/09/08 06:53:36;;;;;;;1.15;0.60;;;;;;;;;;5073924;28;20208;-64
2022/09/08 06:56:07;;;;;;;2.35;1.13;;;;;;;;;;5077731;28;20404;-64
2022/09/08 06:58:33;;;;;;;0.68;0.40;;;;;;;;;;5077276;28;20212;-65
2022/09/08 07:01:03;;;;;;;0.65;0.65;;;;;;;;;;5077985;28;20242;-64
2022/09/08 07:03:38;;;;;;;3.30;0.70;;;;;;;;;;5077504;28;20555;-63
2022/09/08 07:06:06;;;;;;;0.65;0.50;;;;;;;;;;5077723;28;20469;-64
2022/09/08 07:08:51;;;;;;;0.85;0.50;;;;;;;;;;5077680;28;20502;-64
2022/09/08 07:11:24;;;;;;;0.50;0.50;;;;;;;;;;5077831;28;20520;-65
2022/09/08 07:13:57;;;;;;;0.85;0.40;;;;;;;;;;5077252;28;20212;-65
2022/09/08 07:16:26;;;;;;;1.73;0.77;;;;;;;;;;5077403;28;20254;-65
2022/09/08 07:18:53;;;;;;;1.45;1.05;;;;;;;;;;5077379;28;20220;-63
2022/09/08 07:21:26;;;;;;;3.30;0.70;;;;;;;;;;5077407;28;20555;-64
2022/09/08 07:23:54;;;;;;;1.83;0.95;;;;;;;;;;5077287;28;20621;-64
2022/09/08 07:26:22;;;;;;;0.82;0.70;;;;;;;;;;5077646;28;20241;-64
2022/09/08 07:28:51;;;;;;;3.15;1.00;;;;;;;;;;5076792;28;20216;-64
2022/09/08 07:31:19;;;;;;;2.53;0.70;;;;;;;;;;5076546;28;20573;-64
2022/09/08 07:33:46;;;;;;;1.10;0.70;;;;;;;;;;5076530;28;20216;-65
2022/09/08 07:36:16;;;;;;;1.38;0.75;;;;;;;;;;5077045;28;20444;-64
2022/09/08 07:38:46;;;;;;;0.98;0.60;;;;;;;;;;5076768;28;20212;-63
2022/09/08 07:41:16;;;;;;;1.02;1.02;;;;;;;;;;5077323;28;20614;-64
2022/09/08 07:43:42;;;;;;;1.05;0.57;;;;;;;;;;5076973;28;20250;-64
2022/09/08 07:46:24;;;;;;;1.13;0.55;;;;;;;;;;5076146;28;20208;-64
2022/09/08 07:48:53;;;;;;;0.55;0.55;;;;;;;;;;5076205;28;20212;-62
2022/09/08 07:51:21;;;;;;;2.65;1.05;;;;;;;;;;5076171;28;20432;-63
2022/09/08 07:53:54;;;;;;;0.80;0.80;;;;;;;;;;5075978;28;20212;-66
2022/09/08 07:56:23;;;;;;;0.60;0.50;;;;;;;;;;5076745;28;20534;-62
2022/09/08 07:58:57;;;;;;;1.17;1.17;;;;;;;;;;5076138;28;20610;-64
2022/09/08 08:01:32;;;;;;;3.75;0.60;;;;;;;;;;5076244;28;20239;-64
2022/09/08 08:04:04;;;;;;;1.17;0.80;;;;;;;;;;5076786;28;20511;-64
2022/09/08 08:06:38;;;;;;;1.58;0.70;;;;;;;;;;5074739;28;20248;-64
2022/09/08 08:09:10;;;;;;;3.20;0.55;;;;;;;;;;5076218;28;20246;-64
2022/09/08 08:11:38;;;;;;;0.40;0.40;;;;;;;;;;5077974;28;20399;-64
2022/09/08 08:14:08;;;;;;;1.70;0.50;;;;;;;;;;5076567;28;20216;-64
2022/09/08 08:16:43;;;;;;;1.75;0.40;;;;;;;;;;5075127;28;20212;-64
2022/09/08 08:19:16;;;;;;;2.05;0.50;;;;;;;;;;5073451;28;20238;-64
2022/09/08 08:21:44;;;;;;;1.98;0.68;;;;;;;;;;5075220;28;20307;-65
2022/09/08 08:24:18;;;;;;;2.53;0.68;;;;;;;;;;5075917;28;20213;-65
2022/09/08 08:26:46;;;;;;;0.40;0.40;;;;;;;;;;5075541;28;20220;-64
2022/09/08 08:29:19;;;;;;;1.25;0.80;;;;;;;;;;5076236;28;20219;-63
2022/09/08 08:31:48;;;;;;;5.35;0.60;;;;;;;;;;5074772;28;20209;-64
2022/09/08 08:34:18;;;;;;;0.57;0.57;;;;;;;;;;5075287;28;20227;-64
2022/09/08 08:36:46;;;;;;;0.90;0.70;;;;;;;;;;5075079;28;20213;-63
2022/09/08 08:39:14;;;;;;;1.95;0.70;;;;;;;;;;5075246;28;20539;-64
2022/09/08 08:41:49;;;;;;;0.50;0.50;;;;;;;;;;5074481;28;20239;-64
2022/09/08 08:44:21;;;;;;;1.95;0.55;;;;;;;;;;5075291;28;20277;-63
2022/09/08 08:47:08;;;;;;;0.57;0.50;;;;;;;;;;5075362;28;20254;-64
2022/09/08 08:49:43;;;;;;;0.40;0.40;;;;;;;;;;5074759;28;20243;-64
2022/09/08 08:52:17;;;;;;;0.90;0.60;;;;;;;;;;5074243;28;20265;-64
2022/09/08 08:54:50;;;;;;;0.60;0.60;;;;;;;;;;5074703;28;20265;-64
2022/09/08 08:57:24;;;;;;;3.92;0.82;;;;;;;;;;5075550;28;20208;-65
2022/09/08 09:00:01;;;;;;;0.65;0.60;;;;;;;;;;5075584;28;20239;-64
2022/09/08 09:02:33;;;;;;;0.73;0.57;;;;;;;;;;5075638;28;20481;-63
2022/09/08 09:05:10;;;;;;;1.60;0.60;;;;;;;;;;5075665;28;20283;-64
2022/09/08 09:07:56;;;;;;;0.75;0.50;;;;;;;;;;5072657;28;20257;-64
2022/09/08 09:10:40;;;;;;;0.50;0.50;;;;;;;;;;5074761;28;20262;-64
2022/09/08 09:13:26;;;;;;;0.50;0.50;;;;;;;;;;5075326;28;20303;-64
2022/09/08 09:16:01;;;;;;;1.80;0.55;;;;;;;;;;5075395;28;20681;-64
2022/09/08 09:18:43;;;;;;;0.68;0.60;;;;;;;;;;5075261;28;20212;-62
2022/09/08 09:21:11;;;;;;;1.27;0.63;;;;;;;;;;5074470;28;20228;-63
2022/09/08 09:23:41;;;;;;;1.27;0.50;;;;;;;;;;5074556;28;20274;-63
2022/09/08 09:26:15;;;;;;;0.65;0.65;;;;;;;;;;5074887;28;20243;-65
2022/09/08 09:28:59;;;;;;;2.17;0.57;;;;;;;;;;5075235;28;20307;-65
2022/09/08 09:31:46;;;;;;;1.25;0.50;;;;;;;;;;5074177;28;20208;-62
2022/09/08 09:34:23;;;;;;;0.63;0.50;;;;;;;;;;5072511;28;20563;-63
2022/09/08 09:36:59;;;;;;;0.75;0.40;;;;;;;;;;5074627;28;20215;-63
2022/09/08 09:39:39;;;;;;;2.72;1.00;;;;;;;;;;5074672;28;20503;-64
2022/09/08 09:42:19;;;;;;;0.75;0.75;;;;;;;;;;5071335;28;20259;-65
2022/09/08 09:45:07;;;;;;;0.80;0.73;;;;;;;;;;5074655;28;20448;-65
2022/09/08 09:47:43;;;;;;;0.55;0.55;;;;;;;;;;5075285;28;20484;-64
2022/09/08 09:50:30;;;;;;;1.88;0.52;;;;;;;;;;5074972;28;20212;-64
2022/09/08 09:53:01;;;;;;;0.60;0.60;;;;;;;;;;5074765;28;20527;-64
2022/09/08 09:55:39;;;;;;;1.20;0.55;;;;;;;;;;5074547;28;20261;-64
2022/09/08 09:58:18;;;;;;;1.13;0.52;;;;;;;;;;5072028;28;20216;-63
2022/09/08 10:00:55;;;;;;;1.55;0.55;;;;;;;;;;5074242;28;20503;-62
2022/09/08 10:03:40;;;;;;;3.08;0.88;;;;;;;;;;5074209;28;20204;-63
2022/09/08 10:06:21;;;;;;;1.35;0.63;;;;;;;;;;5071995;28;20228;-64
2022/09/08 10:09:06;;;;;;;1.45;0.60;;;;;;;;;;5074536;28;20255;-64
2022/09/08 10:11:56;;;;;;;1.05;1.05;;;;;;;;;;5074551;28;20266;-64
2022/09/08 10:14:29;;;;;;;0.43;0.43;;;;;;;;;;5058995;28;20224;-64
2022/09/08 10:17:14;;;;;;;1.13;0.55;;;;;;;;;;5073406;28;20408;-64
2022/09/08 10:20:08;;;;;;;0.50;0.50;;;;;;;;;;5073724;28;20279;-64
2022/09/08 10:22:50;;;;;;;0.70;0.70;;;;;;;;;;5073563;28;20258;-64
2022/09/08 10:25:41;;;;;;;1.05;0.40;;;;;;;;;;5077810;28;20220;-63
2022/09/08 10:28:18;;;;;;;1.17;0.60;;;;;;;;;;5075414;28;20447;-63
2022/09/08 10:31:10;;;;;;;0.50;0.50;;;;;;;;;;5077426;28;20207;-62
2022/09/08 10:33:46;;;;;;;0.50;0.30;;;;;;;;;;5075022;28;20257;-65
2022/09/08 10:36:13;;;;;;;0.32;0.30;;;;;;;;;;5078327;28;20245;-63
2022/09/08 10:39:00;;;;;;;8.10;0.88;;;;;;;;;;5078083;28;20234;-63
2022/09/08 10:41:50;;;;;;;0.57;0.40;;;;;;;;;;5077914;28;20219;-63
2022/09/08 10:44:30;;;;;;;0.47;0.47;;;;;;;;;;5077492;28;20528;-63
2022/09/08 10:47:19;;;;;;;0.57;0.57;;;;;;;;;;5077714;28;20216;-63
2022/09/08 10:49:55;;;;;;;4.88;0.55;;;;;;;;;;5077546;28;20240;-63
2022/09/08 10:52:26;;;;;;;3.72;0.70;;;;;;;;;;5077263;28;20249;-63
2022/09/08 10:55:14;;;;;;;1.25;0.60;;;;;;;;;;5077588;28;20204;-63
2022/09/08 10:57:50;;;;;;;2.30;0.50;;;;;;;;;;5077326;28;20212;-64
2022/09/08 11:00:20;;;;;;;1.70;0.70;;;;;;;;;;5077336;28;20212;-62
2022/09/08 11:02:55;;;;;;;0.40;0.30;;;;;;;;;;5077310;28;20212;-63
2022/09/08 11:05:40;;;;;;;1.27;0.50;;;;;;;;;;5076503;28;20227;-63
2022/09/08 11:08:25;;;;;;;0.77;0.45;;;;;;;;;;5073939;28;20213;-63
2022/09/08 11:11:02;;;;;;;1.60;0.85;;;;;;;;;;5077120;28;20200;-63
2022/09/08 11:13:31;;;;;;;0.60;0.60;;;;;;;;;;5077392;28;20235;-63
2022/09/08 11:16:09;;;;;;;0.98;0.47;;;;;;;;;;5077050;28;20201;-63
2022/09/08 11:18:37;;;;;;;0.68;0.60;;;;;;;;;;5073616;28;20266;-63
2022/09/08 11:21:04;;;;;;;1.33;0.70;;;;;;;;;;5077303;28;20251;-62
2022/09/08 11:23:37;;;;;;;3.83;0.90;;;;;;;;;;5078034;28;20254;-62
2022/09/08 11:26:12;;;;;;;1.67;0.50;;;;;;;;;;5073791;28;20242;-62
2022/09/08 11:28:48;;;;;;;0.68;0.68;;;;;;;;;;5077064;28;20243;-63
2022/09/08 11:31:22;;;;;;;1.60;0.60;;;;;;;;;;5076896;28;20214;-63
2022/09/08 11:34:06;;;;;;;0.70;0.70;;;;;;;;;;5074284;28;20453;-64
2022/09/08 11:36:44;;;;;;;4.57;0.93;;;;;;;;;;5077747;28;20253;-63
2022/09/08 11:39:15;;;;;;;0.60;0.60;;;;;;;;;;5077582;28;20220;-62
2022/09/08 11:41:56;;;;;;;3.03;0.82;;;;;;;;;;5076559;28;20228;-62
2022/09/08 11:44:38;;;;;;;2.25;0.80;;;;;;;;;;5075023;28;20219;-61
2022/09/08 11:47:15;;;;;;;1.85;0.60;;;;;;;;;;5072890;28;20212;-61
2022/09/08 11:50:01;;;;;;;1.77;0.45;;;;;;;;;;5074310;28;20220;-63
2022/09/08 11:52:38;;;;;;;4.57;1.23;;;;;;;;;;5076439;28;20273;-63
2022/09/08 11:55:15;;;;;;;2.10;0.60;;;;;;;;;;5077022;28;20212;-61
2022/09/08 11:57:46;;;;;;;1.95;0.47;;;;;;;;;;5076404;28;20446;-65
2022/09/08 12:00:16;;;;;;;0.57;0.50;;;;;;;;;;5076557;28;20208;-64
2022/09/08 12:02:53;;;;;;;1.40;0.50;;;;;;;;;;5075914;28;20232;-63
2022/09/08 12:05:22;;;;;;;1.75;0.32;;;;;;;;;;5077210;28;20234;-63
2022/09/08 12:08:06;;;;;;;0.93;0.50;;;;;;;;;;5075944;28;20589;-63
2022/09/08 12:10:40;;;;;;;0.65;0.55;;;;;;;;;;5076480;28;20216;-64
2022/09/08 12:13:14;;;;;;;0.88;0.57;;;;;;;;;;5073360;28;20215;-64
2022/09/08 12:15:58;;;;;;;0.77;0.50;;;;;;;;;;5076693;28;20246;-63
2022/09/08 12:18:32;;;;;;;3.30;0.70;;;;;;;;;;5076155;28;21057;-63
2022/09/08 12:21:13;;;;;;;1.38;0.50;;;;;;;;;;5075663;28;20419;-63
2022/09/08 12:23:43;;;;;;;0.60;0.60;;;;;;;;;;5073041;28;20224;-63
2022/09/08 12:26:17;;;;;;;0.45;0.43;;;;;;;;;;5075974;28;20668;-63
2022/09/08 12:28:51;;;;;;;1.88;0.40;;;;;;;;;;5076210;28;20566;-63
2022/09/08 12:31:23;;;;;;;0.40;0.40;;;;;;;;;;5073846;28;20231;-63
2022/09/08 12:34:04;;;;;;;1.98;0.50;;;;;;;;;;5076282;28;20269;-63
2022/09/08 12:36:36;;;;;;;2.42;0.60;;;;;;;;;;5074269;28;20215;-65
2022/09/08 12:39:10;;;;;;;0.40;0.40;;;;;;;;;;5076085;28;20445;-64
2022/09/08 12:41:50;;;;;;;0.63;0.38;;;;;;;;;;5072883;28;20285;-64
2022/09/08 12:44:23;;;;;;;3.03;0.40;;;;;;;;;;5075264;28;20215;-64
2022/09/08 12:46:54;;;;;;;3.95;0.47;;;;;;;;;;5076119;28;20212;-64
2022/09/08 12:49:34;;;;;;;3.00;0.40;;;;;;;;;;5075927;28;20211;-63
2022/09/08 12:52:02;;;;;;;1.88;0.82;;;;;;;;;;5075665;28;20208;-63
2022/09/08 12:54:47;;;;;;;1.95;0.80;;;;;;;;;;5075141;28;20212;-63
2022/09/08 12:57:27;;;;;;;3.15;0.85;;;;;;;;;;5075638;28;20219;-62
2022/09/08 12:59:58;;;;;;;1.80;0.70;;;;;;;;;;5075560;28;20208;-63
2022/09/08 13:02:32;;;;;;;0.40;0.40;;;;;;;;;;5075197;28;20240;-63
2022/09/08 13:05:03;;;;;;;1.95;0.50;;;;;;;;;;5075498;28;20578;-64
2022/09/08 13:07:35;;;;;;;1.17;0.40;;;;;;;;;;5074916;28;20211;-63
2022/09/08 13:10:06;;;;;;;0.95;0.43;;;;;;;;;;5074807;28;20520;-65
2022/09/08 13:12:50;;;;;;;0.40;0.40;;;;;;;;;;5072115;28;20262;-63
2022/09/08 13:15:24;;;;;;;0.73;0.50;;;;;;;;;;5074493;28;20242;-63
2022/09/08 13:17:55;;;;;;;0.25;0.25;;;;;;;;;;5073166;28;20453;-63
2022/09/08 13:20:22;;;;;;;1.17;0.50;;;;;;;;;;5074470;28;20212;-63
2022/09/08 13:22:59;;;;;;;1.70;0.30;;;;;;;;;;5073430;28;20255;-62
2022/09/08 13:25:30;;;;;;;0.95;0.30;;;;;;;;;;5073607;28;20290;-62
2022/09/08 13:28:06;;;;;;;1.65;0.57;;;;;;;;;;5074842;28;20224;-62
2022/09/08 13:30:37;;;;;;;0.88;0.40;;;;;;;;;;5074996;28;20522;-63
2022/09/08 13:33:22;;;;;;;3.55;0.50;;;;;;;;;;5070379;28;20207;-64
2022/09/08 13:35:59;;;;;;;1.48;0.52;;;;;;;;;;5076162;28;20282;-64
2022/09/08 13:38:40;;;;;;;2.92;0.35;;;;;;;;;;5075000;28;20216;-64
2022/09/08 13:41:15;;;;;;;0.52;0.52;;;;;;;;;;5071935;28;20215;-62
2022/09/08 13:43:49;;;;;;;1.30;0.47;;;;;;;;;;5072815;28;20210;-63
2022/09/08 13:46:18;;;;;;;1.15;0.30;;;;;;;;;;5073643;28;20215;-64
2022/09/08 13:48:52;;;;;;;0.50;0.50;;;;;;;;;;5073979;28;20224;-65
2022/09/08 13:51:25;;;;;;;0.38;0.35;;;;;;;;;;5073713;28;20207;-64
2022/09/08 13:54:10;;;;;;;0.40;0.40;;;;;;;;;;5073680;28;20329;-64
2022/09/08 13:56:46;;;;;;;0.65;0.40;;;;;;;;;;5070020;28;20215;-64
2022/09/08 13:59:16;;;;;;;0.90;0.30;;;;;;;;;;5072341;28;20561;-63
2022/09/08 14:01:43;;;;;;;1.88;0.50;;;;;;;;;;5073546;28;20223;-63
2022/09/08 14:04:18;;;;;;;3.72;0.43;;;;;;;;;;5073617;28;20273;-63
2022/09/08 14:06:46;;;;;;;3.22;0.60;;;;;;;;;;5074432;28;20250;-64
2022/09/08 14:09:16;;;;;;;3.15;0.60;;;;;;;;;;5073363;28;20228;-64
2022/09/08 14:11:54;;;;;;;1.45;0.30;;;;;;;;;;5073199;28;20438;-64
2022/09/08 14:14:39;;;;;;;0.57;0.50;;;;;;;;;;5073710;28;20211;-63
2022/09/08 14:17:13;;;;;;;0.70;0.40;;;;;;;;;;5075090;28;20215;-63
2022/09/08 14:19:49;;;;;;;3.13;0.55;;;;;;;;;;5073620;28;20215;-64
2022/09/08 14:22:20;;;;;;;1.83;0.30;;;;;;;;;;5074568;28;20232;-64
2022/09/08 14:24:52;;;;;;;0.32;0.32;;;;;;;;;;5073978;28;20207;-65
2022/09/08 14:27:33;;;;;;;2.08;0.38;;;;;;;;;;5074558;28;20219;-64
2022/09/08 14:30:04;;;;;;;1.67;0.50;;;;;;;;;;5068714;28;20520;-65
2022/09/08 14:32:36;;;;;;;0.60;0.60;;;;;;;;;;5074610;28;20567;-63
2022/09/08 14:35:07;;;;;;;1.10;0.50;;;;;;;;;;5075008;28;20212;-64
2022/09/08 14:37:43;;;;;;;3.25;0.50;;;;;;;;;;5070693;28;20550;-64
2022/09/08 14:40:16;;;;;;;3.50;0.60;;;;;;;;;;5070916;28;20223;-64
2022/09/08 14:42:56;;;;;;;2.00;0.50;;;;;;;;;;5073533;28;20231;-64
2022/09/08 14:45:26;;;;;;;2.67;0.50;;;;;;;;;;5074297;28;20207;-64
2022/09/08 14:48:06;;;;;;;0.95;0.40;;;;;;;;;;5073939;28;20235;-63
2022/09/08 14:50:37;;;;;;;1.23;0.40;;;;;;;;;;5070661;28;20223;-63
2022/09/08 14:53:15;;;;;;;0.90;0.52;;;;;;;;;;5070456;28;20212;-62
2022/09/08 14:55:44;;;;;;;0.90;0.57;;;;;;;;;;5073534;28;20253;-63
2022/09/08 14:58:21;;;;;;;2.35;0.40;;;;;;;;;;5074017;28;20230;-63
2022/09/08 15:00:50;;;;;;;0.70;0.60;;;;;;;;;;5073865;28;20234;-63
2022/09/08 15:03:19;;;;;;;0.93;0.47;;;;;;;;;;5074356;28;20227;-64
2022/09/08 15:05:45;;;;;;;2.17;0.60;;;;;;;;;;5073460;28;20227;-65
2022/09/08 15:08:15;;;;;;;3.05;0.60;;;;;;;;;;5076286;28;20278;-65
2022/09/08 15:10:46;;;;;;;1.33;0.50;;;;;;;;;;5076560;28;20286;-65
2022/09/08 15:13:17;;;;;;;1.15;0.60;;;;;;;;;;5078297;28;20216;-64
2022/09/08 15:15:44;;;;;;;0.60;0.60;;;;;;;;;;5079174;28;20223;-63
2022/09/08 15:18:24;;;;;;;1.67;0.65;;;;;;;;;;5078977;28;20651;-63